sensor_id;sensor_type;location;lat;lon;timestamp;P1;durP1;ratioP1;P2;durP2;ratioP2
7215;SDS011;3649;48.798;9.798;2023-06-22T00:01:34;8.23;;;7.43;;
7215;SDS011;3649;48.798;9.798;2023-06-22T00:04:01;10.90;;;8.43;;
7215;SDS011;3649;48.798;9.798;2023-06-22T00:06:28;8.73;;;7.83;;
7215;SDS011;3649;48.798;9.798;2023-06-22T00:08:55;11.67;;;8.20;;
7215;SDS011;3649;48.798;9.798;2023-06-22T00:11:23;11.13;;;7.70;;
7215;SDS011;3649;48.798;9.798;2023-06-22T00:13:50;10.40;;;8.23;;
7215;SDS011;3649;48.798;9.798;2023-06-22T00:16:17;11.00;;;8.17;;
7215;SDS011;3649;48.798;9.798;2023-06-22T00:18:44;12.27;;;8.00;;
7215;SDS011;3649;48.798;9.798;2023-06-22T00:21:13;15.10;;;8.53;;
7215;SDS011;3649;48.798;9.798;2023-06-22T00:23:40;10.03;;;8.93;;
7215;SDS011;3649;48.798;9.798;2023-06-22T00:26:07;11.50;;;7.93;;
7215;SDS011;3649;48.798;9.798;2023-06-22T00:28:34;10.30;;;8.53;;
7215;SDS011;3649;48.798;9.798;2023-06-22T00:31:01;10.77;;;8.10;;
7215;SDS011;3649;48.798;9.798;2023-06-22T00:33:28;10.50;;;8.47;;
7215;SDS011;3649;48.798;9.798;2023-06-22T00:35:55;11.80;;;8.57;;
7215;SDS011;3649;48.798;9.798;2023-06-22T00:38:21;10.77;;;9.13;;
7215;SDS011;3649;48.798;9.798;2023-06-22T00:40:48;10.17;;;8.80;;
7215;SDS011;3649;48.798;9.798;2023-06-22T00:43:15;12.37;;;8.27;;
7215;SDS011;3649;48.798;9.798;2023-06-22T00:45:42;12.33;;;8.30;;
7215;SDS011;3649;48.798;9.798;2023-06-22T00:48:09;11.97;;;8.50;;
7215;SDS011;3649;48.798;9.798;2023-06-22T00:50:36;9.70;;;8.33;;
7215;SDS011;3649;48.798;9.798;2023-06-22T00:53:07;12.00;;;8.23;;
7215;SDS011;3649;48.798;9.798;2023-06-22T00:55:36;12.13;;;9.23;;
7215;SDS011;3649;48.798;9.798;2023-06-22T00:58:11;12.77;;;8.97;;
7215;SDS011;3649;48.798;9.798;2023-06-22T01:00:39;11.13;;;8.77;;
7215;SDS011;3649;48.798;9.798;2023-06-22T01:03:07;10.00;;;8.77;;
7215;SDS011;3649;48.798;9.798;2023-06-22T01:05:36;9.73;;;8.73;;
7215;SDS011;3649;48.798;9.798;2023-06-22T01:16:43;10.30;;;8.13;;
7215;SDS011;3649;48.798;9.798;2023-06-22T01:22:05;10.03;;;7.77;;
7215;SDS011;3649;48.798;9.798;2023-06-22T01:25:00;10.70;;;8.20;;
7215;SDS011;3649;48.798;9.798;2023-06-22T01:30:27;9.00;;;8.07;;
7215;SDS011;3649;48.798;9.798;2023-06-22T01:32:57;8.93;;;8.03;;
7215;SDS011;3649;48.798;9.798;2023-06-22T01:35:24;10.57;;;7.90;;
7215;SDS011;3649;48.798;9.798;2023-06-22T01:37:52;8.57;;;7.37;;
7215;SDS011;3649;48.798;9.798;2023-06-22T01:40:18;12.47;;;7.87;;
7215;SDS011;3649;48.798;9.798;2023-06-22T01:42:47;9.60;;;8.30;;
7215;SDS011;3649;48.798;9.798;2023-06-22T01:45:16;10.00;;;8.00;;
7215;SDS011;3649;48.798;9.798;2023-06-22T01:47:43;8.30;;;7.27;;
7215;SDS011;3649;48.798;9.798;2023-06-22T01:50:11;8.33;;;7.53;;
7215;SDS011;3649;48.798;9.798;2023-06-22T01:52:38;9.43;;;7.67;;
7215;SDS011;3649;48.798;9.798;2023-06-22T01:55:05;8.20;;;6.90;;
7215;SDS011;3649;48.798;9.798;2023-06-22T01:57:34;9.53;;;7.70;;
7215;SDS011;3649;48.798;9.798;2023-06-22T02:02:49;8.80;;;7.67;;
7215;SDS011;3649;48.798;9.798;2023-06-22T02:05:23;7.93;;;7.13;;
7215;SDS011;3649;48.798;9.798;2023-06-22T02:07:55;8.67;;;7.50;;
7215;SDS011;3649;48.798;9.798;2023-06-22T02:10:28;12.03;;;7.57;;
7215;SDS011;3649;48.798;9.798;2023-06-22T02:12:57;9.53;;;7.37;;
7215;SDS011;3649;48.798;9.798;2023-06-22T02:15:25;8.70;;;7.23;;
7215;SDS011;3649;48.798;9.798;2023-06-22T02:17:52;10.63;;;7.40;;
7215;SDS011;3649;48.798;9.798;2023-06-22T02:20:19;11.77;;;7.40;;
7215;SDS011;3649;48.798;9.798;2023-06-22T02:22:46;10.57;;;9.03;;
7215;SDS011;3649;48.798;9.798;2023-06-22T02:25:13;19.80;;;13.13;;
7215;SDS011;3649;48.798;9.798;2023-06-22T02:27:41;22.70;;;13.70;;
7215;SDS011;3649;48.798;9.798;2023-06-22T02:30:08;14.50;;;10.77;;
7215;SDS011;3649;48.798;9.798;2023-06-22T02:32:36;11.70;;;10.47;;
7215;SDS011;3649;48.798;9.798;2023-06-22T02:35:03;12.87;;;8.93;;
7215;SDS011;3649;48.798;9.798;2023-06-22T02:37:31;11.60;;;8.40;;
7215;SDS011;3649;48.798;9.798;2023-06-22T02:39:58;9.30;;;7.60;;
7215;SDS011;3649;48.798;9.798;2023-06-22T02:42:25;10.20;;;8.90;;
7215;SDS011;3649;48.798;9.798;2023-06-22T02:44:52;9.63;;;8.60;;
7215;SDS011;3649;48.798;9.798;2023-06-22T02:47:19;9.43;;;8.47;;
7215;SDS011;3649;48.798;9.798;2023-06-22T02:49:46;9.93;;;8.90;;
7215;SDS011;3649;48.798;9.798;2023-06-22T02:52:13;11.87;;;8.00;;
7215;SDS011;3649;48.798;9.798;2023-06-22T02:54:40;9.10;;;8.17;;
7215;SDS011;3649;48.798;9.798;2023-06-22T02:57:08;8.77;;;7.80;;
7215;SDS011;3649;48.798;9.798;2023-06-22T02:59:40;8.73;;;7.77;;
7215;SDS011;3649;48.798;9.798;2023-06-22T03:02:09;9.43;;;8.30;;
7215;SDS011;3649;48.798;9.798;2023-06-22T03:04:37;13.13;;;7.73;;
7215;SDS011;3649;48.798;9.798;2023-06-22T03:07:05;9.17;;;7.93;;
7215;SDS011;3649;48.798;9.798;2023-06-22T03:09:35;8.50;;;7.67;;
7215;SDS011;3649;48.798;9.798;2023-06-22T03:12:02;8.20;;;7.43;;
7215;SDS011;3649;48.798;9.798;2023-06-22T03:14:29;8.30;;;7.50;;
7215;SDS011;3649;48.798;9.798;2023-06-22T03:16:56;11.30;;;7.30;;
7215;SDS011;3649;48.798;9.798;2023-06-22T03:19:28;8.10;;;7.27;;
7215;SDS011;3649;48.798;9.798;2023-06-22T03:21:59;13.70;;;8.73;;
7215;SDS011;3649;48.798;9.798;2023-06-22T03:24:26;12.63;;;8.30;;
7215;SDS011;3649;48.798;9.798;2023-06-22T03:26:56;11.33;;;8.37;;
7215;SDS011;3649;48.798;9.798;2023-06-22T03:29:23;9.07;;;8.27;;
7215;SDS011;3649;48.798;9.798;2023-06-22T03:31:56;11.17;;;8.60;;
7215;SDS011;3649;48.798;9.798;2023-06-22T03:34:23;8.67;;;7.67;;
7215;SDS011;3649;48.798;9.798;2023-06-22T03:36:53;9.70;;;8.70;;
7215;SDS011;3649;48.798;9.798;2023-06-22T03:39:23;10.93;;;8.27;;
7215;SDS011;3649;48.798;9.798;2023-06-22T03:41:50;12.23;;;7.90;;
7215;SDS011;3649;48.798;9.798;2023-06-22T03:44:17;9.50;;;8.43;;
7215;SDS011;3649;48.798;9.798;2023-06-22T03:46:44;10.53;;;8.70;;
7215;SDS011;3649;48.798;9.798;2023-06-22T03:49:11;18.37;;;8.93;;
7215;SDS011;3649;48.798;9.798;2023-06-22T03:51:37;10.97;;;9.17;;
7215;SDS011;3649;48.798;9.798;2023-06-22T03:54:05;10.83;;;8.60;;
7215;SDS011;3649;48.798;9.798;2023-06-22T03:56:32;14.37;;;9.97;;
7215;SDS011;3649;48.798;9.798;2023-06-22T03:58:59;9.80;;;8.83;;
7215;SDS011;3649;48.798;9.798;2023-06-22T04:01:26;10.50;;;8.60;;
7215;SDS011;3649;48.798;9.798;2023-06-22T04:03:52;11.33;;;8.60;;
7215;SDS011;3649;48.798;9.798;2023-06-22T04:06:19;11.23;;;9.27;;
7215;SDS011;3649;48.798;9.798;2023-06-22T04:08:46;10.17;;;9.13;;
7215;SDS011;3649;48.798;9.798;2023-06-22T04:11:17;11.30;;;9.70;;
7215;SDS011;3649;48.798;9.798;2023-06-22T04:13:44;12.20;;;9.47;;
7215;SDS011;3649;48.798;9.798;2023-06-22T04:16:11;13.87;;;9.57;;
7215;SDS011;3649;48.798;9.798;2023-06-22T04:18:38;13.20;;;9.37;;
7215;SDS011;3649;48.798;9.798;2023-06-22T04:21:05;10.60;;;9.50;;
7215;SDS011;3649;48.798;9.798;2023-06-22T04:23:32;10.47;;;9.33;;
7215;SDS011;3649;48.798;9.798;2023-06-22T04:25:59;13.47;;;9.43;;
7215;SDS011;3649;48.798;9.798;2023-06-22T04:28:26;10.87;;;8.27;;
7215;SDS011;3649;48.798;9.798;2023-06-22T04:30:54;11.10;;;9.07;;
7215;SDS011;3649;48.798;9.798;2023-06-22T04:33:24;14.43;;;10.20;;
7215;SDS011;3649;48.798;9.798;2023-06-22T04:35:51;10.73;;;9.70;;
7215;SDS011;3649;48.798;9.798;2023-06-22T04:38:18;13.43;;;9.10;;
7215;SDS011;3649;48.798;9.798;2023-06-22T04:40:47;12.93;;;10.27;;
7215;SDS011;3649;48.798;9.798;2023-06-22T04:43:14;14.47;;;9.37;;
7215;SDS011;3649;48.798;9.798;2023-06-22T04:45:41;11.00;;;9.53;;
7215;SDS011;3649;48.798;9.798;2023-06-22T04:48:08;9.83;;;8.83;;
7215;SDS011;3649;48.798;9.798;2023-06-22T04:50:36;10.93;;;8.67;;
7215;SDS011;3649;48.798;9.798;2023-06-22T04:53:05;13.07;;;9.47;;
7215;SDS011;3649;48.798;9.798;2023-06-22T04:55:33;13.50;;;9.77;;
7215;SDS011;3649;48.798;9.798;2023-06-22T04:58:00;11.57;;;9.40;;
7215;SDS011;3649;48.798;9.798;2023-06-22T05:00:31;13.10;;;8.83;;
7215;SDS011;3649;48.798;9.798;2023-06-22T05:02:58;10.53;;;8.63;;
7215;SDS011;3649;48.798;9.798;2023-06-22T05:05:44;10.27;;;9.27;;
7215;SDS011;3649;48.798;9.798;2023-06-22T05:08:11;10.30;;;9.17;;
7215;SDS011;3649;48.798;9.798;2023-06-22T05:10:39;13.60;;;9.63;;
7215;SDS011;3649;48.798;9.798;2023-06-22T05:13:26;11.33;;;10.00;;
7215;SDS011;3649;48.798;9.798;2023-06-22T05:15:53;11.40;;;8.53;;
7215;SDS011;3649;48.798;9.798;2023-06-22T05:18:30;11.17;;;8.53;;
7215;SDS011;3649;48.798;9.798;2023-06-22T05:20:58;12.57;;;8.83;;
7215;SDS011;3649;48.798;9.798;2023-06-22T05:23:26;10.63;;;8.43;;
7215;SDS011;3649;48.798;9.798;2023-06-22T05:25:52;13.60;;;8.97;;
7215;SDS011;3649;48.798;9.798;2023-06-22T05:28:21;11.13;;;8.33;;
7215;SDS011;3649;48.798;9.798;2023-06-22T05:30:49;10.63;;;9.00;;
7215;SDS011;3649;48.798;9.798;2023-06-22T05:33:17;9.30;;;7.97;;
7215;SDS011;3649;48.798;9.798;2023-06-22T05:35:43;9.23;;;8.27;;
7215;SDS011;3649;48.798;9.798;2023-06-22T05:38:10;12.80;;;8.50;;
7215;SDS011;3649;48.798;9.798;2023-06-22T05:40:37;9.67;;;8.17;;
7215;SDS011;3649;48.798;9.798;2023-06-22T05:43:04;9.57;;;8.60;;
7215;SDS011;3649;48.798;9.798;2023-06-22T05:45:31;10.20;;;7.93;;
7215;SDS011;3649;48.798;9.798;2023-06-22T05:47:58;10.83;;;7.70;;
7215;SDS011;3649;48.798;9.798;2023-06-22T05:50:25;11.43;;;8.00;;
7215;SDS011;3649;48.798;9.798;2023-06-22T05:52:51;11.13;;;7.83;;
7215;SDS011;3649;48.798;9.798;2023-06-22T05:55:18;7.53;;;6.67;;
7215;SDS011;3649;48.798;9.798;2023-06-22T05:57:45;11.03;;;7.30;;
7215;SDS011;3649;48.798;9.798;2023-06-22T06:00:12;11.93;;;7.63;;
7215;SDS011;3649;48.798;9.798;2023-06-22T06:02:40;11.87;;;7.17;;
7215;SDS011;3649;48.798;9.798;2023-06-22T06:05:11;10.13;;;7.50;;
7215;SDS011;3649;48.798;9.798;2023-06-22T06:07:40;10.07;;;6.57;;
7215;SDS011;3649;48.798;9.798;2023-06-22T06:10:11;11.37;;;6.30;;
7215;SDS011;3649;48.798;9.798;2023-06-22T06:12:38;9.37;;;7.00;;
7215;SDS011;3649;48.798;9.798;2023-06-22T06:15:05;11.33;;;6.30;;
7215;SDS011;3649;48.798;9.798;2023-06-22T06:17:44;14.67;;;7.07;;
7215;SDS011;3649;48.798;9.798;2023-06-22T06:20:15;9.90;;;7.53;;
7215;SDS011;3649;48.798;9.798;2023-06-22T06:22:47;10.17;;;6.27;;
7215;SDS011;3649;48.798;9.798;2023-06-22T06:25:14;10.03;;;6.43;;
7215;SDS011;3649;48.798;9.798;2023-06-22T06:27:46;9.83;;;6.63;;
7215;SDS011;3649;48.798;9.798;2023-06-22T06:30:14;10.80;;;6.27;;
7215;SDS011;3649;48.798;9.798;2023-06-22T06:32:43;11.90;;;5.90;;
7215;SDS011;3649;48.798;9.798;2023-06-22T06:35:12;9.17;;;5.53;;
7215;SDS011;3649;48.798;9.798;2023-06-22T06:37:42;7.17;;;5.83;;
7215;SDS011;3649;48.798;9.798;2023-06-22T06:40:10;7.97;;;5.70;;
7215;SDS011;3649;48.798;9.798;2023-06-22T06:42:39;8.60;;;5.70;;
7215;SDS011;3649;48.798;9.798;2023-06-22T06:45:08;8.73;;;5.67;;
7215;SDS011;3649;48.798;9.798;2023-06-22T06:47:35;7.40;;;5.10;;
7215;SDS011;3649;48.798;9.798;2023-06-22T06:50:03;5.93;;;4.63;;
7215;SDS011;3649;48.798;9.798;2023-06-22T06:52:31;8.13;;;5.23;;
7215;SDS011;3649;48.798;9.798;2023-06-22T06:54:59;25.87;;;12.03;;
7215;SDS011;3649;48.798;9.798;2023-06-22T06:57:26;30.70;;;13.60;;
7215;SDS011;3649;48.798;9.798;2023-06-22T06:59:56;34.70;;;15.33;;
7215;SDS011;3649;48.798;9.798;2023-06-22T07:02:23;26.83;;;12.80;;
7215;SDS011;3649;48.798;9.798;2023-06-22T07:04:52;19.13;;;8.30;;
7215;SDS011;3649;48.798;9.798;2023-06-22T07:07:21;8.67;;;5.40;;
7215;SDS011;3649;48.798;9.798;2023-06-22T07:09:48;5.63;;;4.20;;
7215;SDS011;3649;48.798;9.798;2023-06-22T07:12:15;6.17;;;3.43;;
7215;SDS011;3649;48.798;9.798;2023-06-22T07:14:42;7.37;;;4.10;;
7215;SDS011;3649;48.798;9.798;2023-06-22T07:17:09;7.67;;;4.43;;
7215;SDS011;3649;48.798;9.798;2023-06-22T07:19:36;4.73;;;3.70;;
7215;SDS011;3649;48.798;9.798;2023-06-22T07:22:03;6.40;;;3.37;;
7215;SDS011;3649;48.798;9.798;2023-06-22T07:24:30;8.13;;;4.13;;
7215;SDS011;3649;48.798;9.798;2023-06-22T07:26:58;9.40;;;3.93;;
7215;SDS011;3649;48.798;9.798;2023-06-22T07:29:25;7.63;;;3.90;;
7215;SDS011;3649;48.798;9.798;2023-06-22T07:31:53;10.43;;;3.87;;
7215;SDS011;3649;48.798;9.798;2023-06-22T07:34:22;7.20;;;3.63;;
7215;SDS011;3649;48.798;9.798;2023-06-22T07:36:49;7.53;;;3.87;;
7215;SDS011;3649;48.798;9.798;2023-06-22T07:39:16;7.93;;;3.73;;
7215;SDS011;3649;48.798;9.798;2023-06-22T07:41:43;5.83;;;4.37;;
7215;SDS011;3649;48.798;9.798;2023-06-22T07:44:10;10.97;;;5.00;;
7215;SDS011;3649;48.798;9.798;2023-06-22T07:46:37;5.47;;;3.60;;
7215;SDS011;3649;48.798;9.798;2023-06-22T07:49:05;8.27;;;4.07;;
7215;SDS011;3649;48.798;9.798;2023-06-22T07:51:31;6.17;;;3.67;;
7215;SDS011;3649;48.798;9.798;2023-06-22T07:53:58;6.50;;;3.67;;
7215;SDS011;3649;48.798;9.798;2023-06-22T07:56:25;8.00;;;3.90;;
7215;SDS011;3649;48.798;9.798;2023-06-22T07:58:52;6.83;;;3.77;;
7215;SDS011;3649;48.798;9.798;2023-06-22T08:01:19;10.57;;;4.07;;
7215;SDS011;3649;48.798;9.798;2023-06-22T08:03:48;8.73;;;4.10;;
7215;SDS011;3649;48.798;9.798;2023-06-22T08:06:15;6.50;;;3.60;;
7215;SDS011;3649;48.798;9.798;2023-06-22T08:08:42;9.37;;;3.47;;
7215;SDS011;3649;48.798;9.798;2023-06-22T08:11:09;9.43;;;4.37;;
7215;SDS011;3649;48.798;9.798;2023-06-22T08:13:36;8.23;;;3.73;;
7215;SDS011;3649;48.798;9.798;2023-06-22T08:16:03;6.33;;;3.80;;
7215;SDS011;3649;48.798;9.798;2023-06-22T08:18:30;6.70;;;3.83;;
7215;SDS011;3649;48.798;9.798;2023-06-22T08:20:57;8.33;;;4.13;;
7215;SDS011;3649;48.798;9.798;2023-06-22T08:23:24;7.63;;;3.90;;
7215;SDS011;3649;48.798;9.798;2023-06-22T08:25:51;8.13;;;4.47;;
7215;SDS011;3649;48.798;9.798;2023-06-22T08:28:18;11.03;;;4.23;;
7215;SDS011;3649;48.798;9.798;2023-06-22T08:30:45;7.33;;;3.90;;
7215;SDS011;3649;48.798;9.798;2023-06-22T08:33:12;11.40;;;4.33;;
7215;SDS011;3649;48.798;9.798;2023-06-22T08:35:52;13.00;;;4.33;;
7215;SDS011;3649;48.798;9.798;2023-06-22T08:38:19;9.37;;;4.90;;
7215;SDS011;3649;48.798;9.798;2023-06-22T08:40:46;7.27;;;4.57;;
7215;SDS011;3649;48.798;9.798;2023-06-22T08:43:13;6.57;;;4.50;;
7215;SDS011;3649;48.798;9.798;2023-06-22T08:45:41;9.60;;;5.00;;
7215;SDS011;3649;48.798;9.798;2023-06-22T08:48:09;7.03;;;4.53;;
7215;SDS011;3649;48.798;9.798;2023-06-22T08:50:36;10.27;;;4.63;;
7215;SDS011;3649;48.798;9.798;2023-06-22T08:53:03;16.47;;;5.03;;
7215;SDS011;3649;48.798;9.798;2023-06-22T08:55:30;10.93;;;5.17;;
7215;SDS011;3649;48.798;9.798;2023-06-22T08:57:58;8.47;;;4.77;;
7215;SDS011;3649;48.798;9.798;2023-06-22T09:00:28;11.33;;;4.93;;
7215;SDS011;3649;48.798;9.798;2023-06-22T09:02:58;13.03;;;4.87;;
7215;SDS011;3649;48.798;9.798;2023-06-22T09:05:26;14.97;;;5.10;;
7215;SDS011;3649;48.798;9.798;2023-06-22T09:07:55;11.03;;;5.43;;
7215;SDS011;3649;48.798;9.798;2023-06-22T09:10:23;14.83;;;5.37;;
7215;SDS011;3649;48.798;9.798;2023-06-22T09:12:49;10.37;;;5.67;;
7215;SDS011;3649;48.798;9.798;2023-06-22T09:15:16;19.90;;;5.70;;
7215;SDS011;3649;48.798;9.798;2023-06-22T09:17:44;11.63;;;5.40;;
7215;SDS011;3649;48.798;9.798;2023-06-22T09:20:13;10.87;;;5.53;;
7215;SDS011;3649;48.798;9.798;2023-06-22T09:22:40;9.43;;;4.90;;
7215;SDS011;3649;48.798;9.798;2023-06-22T09:25:08;11.03;;;5.27;;
7215;SDS011;3649;48.798;9.798;2023-06-22T09:27:35;17.03;;;5.53;;
7215;SDS011;3649;48.798;9.798;2023-06-22T09:30:02;9.80;;;5.33;;
7215;SDS011;3649;48.798;9.798;2023-06-22T09:32:30;10.33;;;4.67;;
7215;SDS011;3649;48.798;9.798;2023-06-22T09:34:57;14.27;;;6.13;;
7215;SDS011;3649;48.798;9.798;2023-06-22T09:37:24;11.10;;;5.80;;
7215;SDS011;3649;48.798;9.798;2023-06-22T09:39:50;9.57;;;5.00;;
7215;SDS011;3649;48.798;9.798;2023-06-22T09:42:17;12.67;;;5.63;;
7215;SDS011;3649;48.798;9.798;2023-06-22T09:44:44;10.67;;;5.87;;
7215;SDS011;3649;48.798;9.798;2023-06-22T09:47:11;13.50;;;6.67;;
7215;SDS011;3649;48.798;9.798;2023-06-22T09:49:38;12.20;;;5.40;;
7215;SDS011;3649;48.798;9.798;2023-06-22T09:52:13;10.70;;;5.57;;
7215;SDS011;3649;48.798;9.798;2023-06-22T09:54:40;11.67;;;5.10;;
7215;SDS011;3649;48.798;9.798;2023-06-22T09:57:07;15.03;;;5.20;;
7215;SDS011;3649;48.798;9.798;2023-06-22T09:59:34;10.63;;;5.27;;
7215;SDS011;3649;48.798;9.798;2023-06-22T10:02:01;15.13;;;5.47;;
7215;SDS011;3649;48.798;9.798;2023-06-22T10:04:28;9.33;;;5.40;;
7215;SDS011;3649;48.798;9.798;2023-06-22T10:06:56;14.43;;;6.40;;
7215;SDS011;3649;48.798;9.798;2023-06-22T10:09:23;13.27;;;5.30;;
7215;SDS011;3649;48.798;9.798;2023-06-22T10:11:50;14.30;;;6.27;;
7215;SDS011;3649;48.798;9.798;2023-06-22T10:14:17;13.57;;;6.00;;
7215;SDS011;3649;48.798;9.798;2023-06-22T10:16:44;15.73;;;6.13;;
7215;SDS011;3649;48.798;9.798;2023-06-22T10:19:11;11.73;;;6.17;;
7215;SDS011;3649;48.798;9.798;2023-06-22T10:21:38;12.67;;;6.07;;
7215;SDS011;3649;48.798;9.798;2023-06-22T10:24:05;13.90;;;6.03;;
7215;SDS011;3649;48.798;9.798;2023-06-22T10:26:33;11.17;;;5.87;;
7215;SDS011;3649;48.798;9.798;2023-06-22T10:29:00;13.47;;;6.37;;
7215;SDS011;3649;48.798;9.798;2023-06-22T10:31:42;10.77;;;5.60;;
7215;SDS011;3649;48.798;9.798;2023-06-22T10:34:09;15.17;;;6.00;;
7215;SDS011;3649;48.798;9.798;2023-06-22T10:36:36;10.07;;;5.43;;
7215;SDS011;3649;48.798;9.798;2023-06-22T10:39:03;14.67;;;6.40;;
7215;SDS011;3649;48.798;9.798;2023-06-22T10:41:30;11.40;;;5.67;;
7215;SDS011;3649;48.798;9.798;2023-06-22T10:43:57;9.97;;;5.57;;
7215;SDS011;3649;48.798;9.798;2023-06-22T10:46:25;17.40;;;6.80;;
7215;SDS011;3649;48.798;9.798;2023-06-22T10:48:52;12.77;;;5.50;;
7215;SDS011;3649;48.798;9.798;2023-06-22T10:51:21;14.67;;;5.87;;
7215;SDS011;3649;48.798;9.798;2023-06-22T10:53:48;13.57;;;5.83;;
7215;SDS011;3649;48.798;9.798;2023-06-22T10:56:15;15.17;;;5.80;;
7215;SDS011;3649;48.798;9.798;2023-06-22T10:58:42;13.27;;;5.63;;
7215;SDS011;3649;48.798;9.798;2023-06-22T11:01:10;10.60;;;5.97;;
7215;SDS011;3649;48.798;9.798;2023-06-22T11:03:57;13.50;;;5.73;;
7215;SDS011;3649;48.798;9.798;2023-06-22T11:06:24;13.63;;;5.90;;
7215;SDS011;3649;48.798;9.798;2023-06-22T11:08:51;12.57;;;6.67;;
7215;SDS011;3649;48.798;9.798;2023-06-22T11:11:31;15.43;;;6.37;;
7215;SDS011;3649;48.798;9.798;2023-06-22T11:13:59;11.37;;;5.53;;
7215;SDS011;3649;48.798;9.798;2023-06-22T11:16:26;9.70;;;5.27;;
7215;SDS011;3649;48.798;9.798;2023-06-22T11:18:53;14.33;;;6.67;;
7215;SDS011;3649;48.798;9.798;2023-06-22T11:21:20;15.07;;;6.40;;
7215;SDS011;3649;48.798;9.798;2023-06-22T11:23:47;12.73;;;6.60;;
7215;SDS011;3649;48.798;9.798;2023-06-22T11:26:15;12.50;;;6.20;;
7215;SDS011;3649;48.798;9.798;2023-06-22T11:28:41;20.57;;;5.77;;
7215;SDS011;3649;48.798;9.798;2023-06-22T11:31:08;11.20;;;5.93;;
7215;SDS011;3649;48.798;9.798;2023-06-22T11:33:50;11.67;;;6.20;;
7215;SDS011;3649;48.798;9.798;2023-06-22T11:36:18;10.17;;;5.90;;
7215;SDS011;3649;48.798;9.798;2023-06-22T11:38:45;16.77;;;5.93;;
7215;SDS011;3649;48.798;9.798;2023-06-22T11:41:12;16.10;;;5.83;;
7215;SDS011;3649;48.798;9.798;2023-06-22T11:43:39;14.40;;;5.53;;
7215;SDS011;3649;48.798;9.798;2023-06-22T11:46:06;15.00;;;6.23;;
7215;SDS011;3649;48.798;9.798;2023-06-22T11:48:33;13.60;;;6.10;;
7215;SDS011;3649;48.798;9.798;2023-06-22T11:51:00;14.40;;;6.27;;
7215;SDS011;3649;48.798;9.798;2023-06-22T11:53:29;18.40;;;5.67;;
7215;SDS011;3649;48.798;9.798;2023-06-22T11:55:56;13.80;;;6.67;;
7215;SDS011;3649;48.798;9.798;2023-06-22T11:58:23;14.40;;;6.77;;
7215;SDS011;3649;48.798;9.798;2023-06-22T12:00:50;18.27;;;6.50;;
7215;SDS011;3649;48.798;9.798;2023-06-22T12:03:19;13.07;;;6.50;;
7215;SDS011;3649;48.798;9.798;2023-06-22T12:05:49;13.33;;;5.70;;
7215;SDS011;3649;48.798;9.798;2023-06-22T12:08:17;12.20;;;6.07;;
7215;SDS011;3649;48.798;9.798;2023-06-22T12:10:45;10.27;;;5.80;;
7215;SDS011;3649;48.798;9.798;2023-06-22T12:13:12;14.50;;;6.10;;
7215;SDS011;3649;48.798;9.798;2023-06-22T12:15:39;10.93;;;6.23;;
7215;SDS011;3649;48.798;9.798;2023-06-22T12:18:06;12.87;;;5.67;;
7215;SDS011;3649;48.798;9.798;2023-06-22T12:20:33;13.50;;;5.67;;
7215;SDS011;3649;48.798;9.798;2023-06-22T12:23:00;12.97;;;6.70;;
7215;SDS011;3649;48.798;9.798;2023-06-22T12:25:27;15.43;;;6.10;;
7215;SDS011;3649;48.798;9.798;2023-06-22T12:27:54;13.77;;;6.20;;
7215;SDS011;3649;48.798;9.798;2023-06-22T12:30:21;14.60;;;6.40;;
7215;SDS011;3649;48.798;9.798;2023-06-22T12:32:49;17.53;;;6.67;;
7215;SDS011;3649;48.798;9.798;2023-06-22T12:35:17;12.80;;;5.97;;
7215;SDS011;3649;48.798;9.798;2023-06-22T12:37:45;13.00;;;6.30;;
7215;SDS011;3649;48.798;9.798;2023-06-22T12:40:12;10.67;;;6.17;;
7215;SDS011;3649;48.798;9.798;2023-06-22T12:42:39;13.07;;;6.60;;
7215;SDS011;3649;48.798;9.798;2023-06-22T12:45:06;12.10;;;6.40;;
7215;SDS011;3649;48.798;9.798;2023-06-22T12:47:34;20.50;;;6.13;;
7215;SDS011;3649;48.798;9.798;2023-06-22T12:50:01;12.63;;;5.90;;
7215;SDS011;3649;48.798;9.798;2023-06-22T12:52:29;14.97;;;6.70;;
7215;SDS011;3649;48.798;9.798;2023-06-22T12:55:00;15.30;;;6.27;;
7215;SDS011;3649;48.798;9.798;2023-06-22T12:57:27;11.73;;;6.27;;
7215;SDS011;3649;48.798;9.798;2023-06-22T12:59:54;16.27;;;6.80;;
7215;SDS011;3649;48.798;9.798;2023-06-22T13:02:21;9.20;;;5.90;;
7215;SDS011;3649;48.798;9.798;2023-06-22T13:04:48;19.17;;;6.00;;
7215;SDS011;3649;48.798;9.798;2023-06-22T13:07:15;10.20;;;6.03;;
7215;SDS011;3649;48.798;9.798;2023-06-22T13:09:48;17.47;;;6.37;;
7215;SDS011;3649;48.798;9.798;2023-06-22T13:12:20;14.13;;;7.00;;
7215;SDS011;3649;48.798;9.798;2023-06-22T13:14:47;18.87;;;6.53;;
7215;SDS011;3649;48.798;9.798;2023-06-22T13:17:15;11.80;;;6.20;;
7215;SDS011;3649;48.798;9.798;2023-06-22T13:19:42;16.33;;;6.30;;
7215;SDS011;3649;48.798;9.798;2023-06-22T13:22:25;18.50;;;6.30;;
7215;SDS011;3649;48.798;9.798;2023-06-22T13:24:55;11.90;;;6.07;;
7215;SDS011;3649;48.798;9.798;2023-06-22T13:27:23;15.60;;;5.80;;
7215;SDS011;3649;48.798;9.798;2023-06-22T13:29:50;12.30;;;6.30;;
7215;SDS011;3649;48.798;9.798;2023-06-22T13:32:17;13.80;;;6.37;;
7215;SDS011;3649;48.798;9.798;2023-06-22T13:34:44;16.90;;;6.83;;
7215;SDS011;3649;48.798;9.798;2023-06-22T13:37:11;12.43;;;6.50;;
7215;SDS011;3649;48.798;9.798;2023-06-22T13:39:38;14.63;;;6.53;;
7215;SDS011;3649;48.798;9.798;2023-06-22T13:42:05;11.80;;;5.97;;
7215;SDS011;3649;48.798;9.798;2023-06-22T13:44:32;19.13;;;6.07;;
7215;SDS011;3649;48.798;9.798;2023-06-22T13:46:59;13.13;;;5.60;;
7215;SDS011;3649;48.798;9.798;2023-06-22T13:49:26;15.23;;;5.40;;
7215;SDS011;3649;48.798;9.798;2023-06-22T13:51:53;10.73;;;5.70;;
7215;SDS011;3649;48.798;9.798;2023-06-22T13:54:21;13.10;;;5.53;;
7215;SDS011;3649;48.798;9.798;2023-06-22T13:56:51;15.43;;;6.03;;
7215;SDS011;3649;48.798;9.798;2023-06-22T13:59:18;16.43;;;5.90;;
7215;SDS011;3649;48.798;9.798;2023-06-22T14:01:46;12.67;;;5.97;;
7215;SDS011;3649;48.798;9.798;2023-06-22T14:04:13;14.27;;;6.23;;
7215;SDS011;3649;48.798;9.798;2023-06-22T14:06:40;13.27;;;5.73;;
7215;SDS011;3649;48.798;9.798;2023-06-22T14:09:07;13.33;;;5.87;;
7215;SDS011;3649;48.798;9.798;2023-06-22T14:11:34;15.50;;;6.57;;
7215;SDS011;3649;48.798;9.798;2023-06-22T14:14:01;16.27;;;6.90;;
7215;SDS011;3649;48.798;9.798;2023-06-22T14:16:28;12.87;;;6.57;;
7215;SDS011;3649;48.798;9.798;2023-06-22T14:18:55;17.10;;;6.40;;
7215;SDS011;3649;48.798;9.798;2023-06-22T14:21:23;17.77;;;6.60;;
7215;SDS011;3649;48.798;9.798;2023-06-22T14:23:52;17.20;;;7.00;;
7215;SDS011;3649;48.798;9.798;2023-06-22T14:26:19;15.17;;;6.27;;
7215;SDS011;3649;48.798;9.798;2023-06-22T14:28:46;12.00;;;5.50;;
7215;SDS011;3649;48.798;9.798;2023-06-22T14:31:15;12.57;;;6.10;;
7215;SDS011;3649;48.798;9.798;2023-06-22T14:33:46;11.67;;;6.07;;
7215;SDS011;3649;48.798;9.798;2023-06-22T14:36:14;12.10;;;5.37;;
7215;SDS011;3649;48.798;9.798;2023-06-22T14:38:42;11.80;;;5.80;;
7215;SDS011;3649;48.798;9.798;2023-06-22T14:41:09;15.10;;;5.70;;
7215;SDS011;3649;48.798;9.798;2023-06-22T14:43:43;14.97;;;6.27;;
7215;SDS011;3649;48.798;9.798;2023-06-22T14:46:12;15.27;;;5.37;;
7215;SDS011;3649;48.798;9.798;2023-06-22T14:48:40;13.80;;;6.37;;
7215;SDS011;3649;48.798;9.798;2023-06-22T14:51:08;12.57;;;5.70;;
7215;SDS011;3649;48.798;9.798;2023-06-22T14:53:38;9.77;;;5.67;;
7215;SDS011;3649;48.798;9.798;2023-06-22T14:56:05;12.97;;;5.97;;
7215;SDS011;3649;48.798;9.798;2023-06-22T14:58:33;15.70;;;6.00;;
7215;SDS011;3649;48.798;9.798;2023-06-22T15:01:00;13.70;;;5.80;;
7215;SDS011;3649;48.798;9.798;2023-06-22T15:03:29;11.93;;;5.97;;
7215;SDS011;3649;48.798;9.798;2023-06-22T15:06:02;18.10;;;5.53;;
7215;SDS011;3649;48.798;9.798;2023-06-22T15:08:29;10.80;;;5.23;;
7215;SDS011;3649;48.798;9.798;2023-06-22T15:10:59;14.40;;;5.93;;
7215;SDS011;3649;48.798;9.798;2023-06-22T15:13:30;15.27;;;5.57;;
7215;SDS011;3649;48.798;9.798;2023-06-22T15:16:00;11.83;;;5.03;;
7215;SDS011;3649;48.798;9.798;2023-06-22T15:18:30;11.27;;;5.03;;
7215;SDS011;3649;48.798;9.798;2023-06-22T15:20:57;14.10;;;5.23;;
7215;SDS011;3649;48.798;9.798;2023-06-22T15:23:25;12.00;;;4.70;;
7215;SDS011;3649;48.798;9.798;2023-06-22T15:25:52;17.17;;;7.37;;
7215;SDS011;3649;48.798;9.798;2023-06-22T15:28:19;12.07;;;5.83;;